createdAt,value
2016-05-08T00:00:13.038Z,24.39
2016-05-08T00:01:13.229Z,24.34
2016-05-08T00:02:13.434Z,24.34
2016-05-08T00:03:13.640Z,24.34
2016-05-08T00:04:13.424Z,24.34
2016-05-08T00:05:13.443Z,24.29
2016-05-08T00:06:13.648Z,24.33
2016-05-08T00:07:13.635Z,24.21
2016-05-08T00:08:13.123Z,24.26
2016-05-08T00:09:13.437Z,24.27
2016-05-08T00:10:13.440Z,24.22
2016-05-08T00:11:13.084Z,24.19
2016-05-08T00:12:13.289Z,24.24
2016-05-08T00:13:13.448Z,24.19
2016-05-08T00:14:13.451Z,24.21
2016-05-08T00:15:13.453Z,24.19
2016-05-08T00:16:13.253Z,24.17
2016-05-08T00:17:13.647Z,24.09
2016-05-08T00:18:13.290Z,24.04
2016-05-08T00:19:13.058Z,24.11
2016-05-08T00:20:13.248Z,24.09
2016-05-08T00:21:13.297Z,24.14
2016-05-08T00:22:13.456Z,24.04
2016-05-08T00:23:13.492Z,24.09
2016-05-08T00:24:13.391Z,24.09
2016-05-08T00:25:13.097Z,23.99
2016-05-08T00:26:13.506Z,24.07
2016-05-08T00:27:13.665Z,24.03
2016-05-08T00:28:13.464Z,24
2016-05-08T00:29:13.061Z,23.99
2016-05-08T00:30:13.657Z,23.99
2016-05-08T00:31:13.457Z,23.92
2016-05-08T00:32:13.101Z,23.87
2016-05-08T00:33:13.462Z,23.92
2016-05-08T00:34:13.261Z,23.85
2016-05-08T00:35:13.514Z,23.84
2016-05-08T00:36:13.314Z,23.87
2016-05-08T00:37:13.098Z,23.9
2016-05-08T00:38:13.460Z,23.87
2016-05-08T00:39:13.056Z,23.77
2016-05-08T00:40:13.262Z,23.85
2016-05-08T00:41:13.046Z,23.78
2016-05-08T00:42:13.939Z,23.74
2016-05-08T00:43:13.458Z,23.79
2016-05-08T00:44:13.055Z,23.75
2016-05-08T00:45:13.260Z,23.74
2016-05-08T00:46:13.263Z,23.71
2016-05-08T00:47:13.672Z,23.7
2016-05-08T00:48:13.269Z,23.72
2016-05-08T00:49:13.677Z,23.7
2016-05-08T00:50:13.477Z,23.62
2016-05-08T00:51:13.682Z,23.64
2016-05-08T00:52:13.279Z,23.6
2016-05-08T00:53:13.265Z,23.63
2016-05-08T00:54:13.472Z,23.62
2016-05-08T00:55:13.255Z,23.63
2016-05-08T00:56:13.477Z,23.62
2016-05-08T00:57:13.635Z,23.59
2016-05-08T00:58:13.263Z,23.56
2016-05-08T00:59:13.469Z,23.53
2016-05-08T01:00:13.473Z,23.52
2016-05-08T01:01:13.679Z,23.45
2016-05-08T01:02:13.524Z,23.62
2016-05-08T01:03:13.261Z,23.55
2016-05-08T01:04:13.687Z,23.52
2016-05-08T01:05:13.486Z,23.52
2016-05-08T01:06:13.082Z,23.57
2016-05-08T01:07:13.679Z,23.47
2016-05-08T01:08:13.478Z,23.53
2016-05-08T01:09:13.480Z,23.57
2016-05-08T01:10:13.264Z,23.44
2016-05-08T01:11:13.267Z,23.44
2016-05-08T01:12:13.489Z,23.4
2016-05-08T01:13:13.679Z,23.38
2016-05-08T01:14:13.275Z,23.37
2016-05-08T01:15:13.091Z,23.44
2016-05-08T01:16:13.484Z,23.42
2016-05-08T01:17:13.331Z,23.41
2016-05-08T01:18:13.317Z,23.47
2016-05-08T01:19:13.492Z,23.35
2016-05-08T01:20:13.479Z,23.41
2016-05-08T01:21:13.466Z,23.28
2016-05-08T01:22:13.485Z,23.32
2016-05-08T01:23:13.691Z,23.25
2016-05-08T01:24:13.287Z,23.25
2016-05-08T01:25:13.478Z,23.22
2016-05-08T01:26:13.683Z,23.25
2016-05-08T01:27:14.311Z,23.28
2016-05-08T01:28:13.688Z,23.22
2016-05-08T01:29:13.489Z,23.26
2016-05-08T01:30:13.491Z,23.28
2016-05-08T01:31:13.494Z,23.28
2016-05-08T01:32:13.277Z,23.18
2016-05-08T01:33:13.281Z,23.16
2016-05-08T01:34:13.080Z,23.14
2016-05-08T01:35:13.271Z,23.19
2016-05-08T01:36:13.476Z,23.15
2016-05-08T01:37:13.073Z,23.15
2016-05-08T01:38:13.325Z,23.19
2016-05-08T01:39:13.672Z,23.15
2016-05-08T01:40:13.487Z,23.1
2016-05-08T01:41:13.490Z,23.12
2016-05-08T01:42:13.336Z,23.07
2016-05-08T01:43:13.526Z,23.06
2016-05-08T01:44:13.545Z,23.06
2016-05-08T01:45:13.298Z,23.06
2016-05-08T01:46:13.690Z,23.1
2016-05-08T01:47:13.178Z,23.04
2016-05-08T01:48:13.681Z,23.15
2016-05-08T01:49:12.917Z,23.04
2016-05-08T01:50:13.123Z,23
2016-05-08T01:51:13.282Z,23.03
2016-05-08T01:52:13.691Z,23.04
2016-05-08T01:53:13.506Z,22.96
2016-05-08T01:54:13.275Z,22.97
2016-05-08T01:55:13.184Z,22.92
2016-05-08T01:56:13.342Z,22.94
2016-05-08T01:57:13.345Z,22.99
2016-05-08T01:58:13.285Z,23
2016-05-08T01:59:13.694Z,22.91
2016-05-08T02:00:13.291Z,22.97
2016-05-08T02:01:13.700Z,22.99
2016-05-08T02:02:13.469Z,22.91
2016-05-08T02:03:13.283Z,22.88
2016-05-08T02:04:13.066Z,22.96
2016-05-08T02:05:13.273Z,22.85
2016-05-08T02:06:13.682Z,22.91
2016-05-08T02:07:13.279Z,22.89
2016-05-08T02:08:13.282Z,22.85
2016-05-08T02:09:13.330Z,22.88
2016-05-08T02:10:13.473Z,22.86
2016-05-08T02:11:13.493Z,22.85
2016-05-08T02:12:13.480Z,22.76
2016-05-08T02:13:13.279Z,22.85
2016-05-08T02:14:13.282Z,22.85
2016-05-08T02:15:13.690Z,22.79
2016-05-08T02:16:13.287Z,22.75
2016-05-08T02:17:13.476Z,22.75
2016-05-08T02:18:13.684Z,22.78
2016-05-08T02:19:13.279Z,22.67
2016-05-08T02:20:13.689Z,22.73
2016-05-08T02:21:13.112Z,22.75
2016-05-08T02:22:13.490Z,22.73
2016-05-08T02:23:13.290Z,22.6
2016-05-08T02:24:13.684Z,22.66
2016-05-08T02:25:13.295Z,22.61
2016-05-08T02:26:13.486Z,22.61
2016-05-08T02:27:14.316Z,22.69
2016-05-08T02:28:13.678Z,22.59
2016-05-08T02:29:13.478Z,22.61
2016-05-08T02:30:13.262Z,22.54
2016-05-08T02:31:13.483Z,22.6
2016-05-08T02:32:13.533Z,22.55
2016-05-08T02:33:13.474Z,22.61
2016-05-08T02:34:13.491Z,22.51
2016-05-08T02:35:13.322Z,22.49
2016-05-08T02:36:12.903Z,22.54
2016-05-08T02:37:13.265Z,22.54
2016-05-08T02:38:13.471Z,22.45
2016-05-08T02:39:13.677Z,22.52
2016-05-08T02:40:13.679Z,22.45
2016-05-08T02:41:12.901Z,22.48
2016-05-08T02:42:13.796Z,22.49
2016-05-08T02:43:13.751Z,22.48
2016-05-08T02:44:13.598Z,22.34
2016-05-08T02:45:13.649Z,22.31
2016-05-08T02:46:13.699Z,22.36
2016-05-08T02:47:13.151Z,22.38
2016-05-08T02:48:13.953Z,22.44
2016-05-08T02:49:13.754Z,22.39
2016-05-08T02:50:13.555Z,22.34
2016-05-08T02:51:13.591Z,22.24
2016-05-08T02:52:14.009Z,22.26
2016-05-08T02:53:13.596Z,22.27
2016-05-08T02:54:13.606Z,22.22
2016-05-08T02:55:13.614Z,22.34
2016-05-08T02:56:13.825Z,22.23
2016-05-08T02:57:14.582Z,22.29
2016-05-08T02:58:13.821Z,22.26
2016-05-08T02:59:13.842Z,22.24
2016-05-08T03:00:13.847Z,22.22
2016-05-08T03:01:13.461Z,22.16
2016-05-08T03:02:13.465Z,22.22
2016-05-08T03:03:14.031Z,22.15
2016-05-08T03:04:13.425Z,22.2
2016-05-08T03:05:13.460Z,22.18
2016-05-08T03:06:13.620Z,22.11
2016-05-08T03:07:13.826Z,22.15
2016-05-08T03:08:13.673Z,22.08
2016-05-08T03:09:13.629Z,22.09
2016-05-08T03:10:13.632Z,22.08
2016-05-08T03:11:13.838Z,22.04
2016-05-08T03:12:13.872Z,22.12
2016-05-08T03:13:13.829Z,22.12
2016-05-08T03:14:13.612Z,22.07
2016-05-08T03:15:13.630Z,22.02
2016-05-08T03:16:13.820Z,22.05
2016-05-08T03:17:13.871Z,22
2016-05-08T03:18:13.810Z,22.07
2016-05-08T03:19:13.829Z,21.97
2016-05-08T03:20:14.034Z,22.02
2016-05-08T03:21:14.022Z,21.89
2016-05-08T03:22:13.618Z,21.93
2016-05-08T03:23:13.621Z,22.02
2016-05-08T03:24:14.014Z,21.96
2016-05-08T03:25:14.017Z,21.92
2016-05-08T03:26:13.613Z,21.96
2016-05-08T03:27:15.023Z,21.83
2016-05-08T03:28:13.603Z,21.97
2016-05-08T03:29:13.809Z,21.92
2016-05-08T03:30:13.608Z,21.9
2016-05-08T03:31:13.612Z,21.89
2016-05-08T03:32:13.816Z,21.9
2016-05-08T03:33:13.617Z,21.89
2016-05-08T03:34:13.806Z,21.86
2016-05-08T03:35:14.012Z,21.8
2016-05-08T03:36:13.797Z,21.85
2016-05-08T03:37:13.596Z,21.86
2016-05-08T03:38:13.817Z,21.85
2016-05-08T03:39:13.804Z,21.77
2016-05-08T03:40:14.010Z,21.8
2016-05-08T03:41:13.997Z,21.82
2016-05-08T03:42:13.999Z,21.78
2016-05-08T03:43:13.597Z,21.78
2016-05-08T03:44:13.583Z,21.78
2016-05-08T03:45:13.461Z,21.76
2016-05-08T03:46:13.838Z,21.71
2016-05-08T03:47:13.998Z,21.71
2016-05-08T03:48:14.001Z,21.73
2016-05-08T03:49:13.801Z,21.77
2016-05-08T03:50:14.006Z,21.82
2016-05-08T03:51:13.587Z,21.77
2016-05-08T03:52:13.448Z,21.71
2016-05-08T03:53:13.842Z,21.77
2016-05-08T03:54:13.595Z,21.62
2016-05-08T03:55:13.801Z,21.71
2016-05-08T03:56:13.584Z,21.7
2016-05-08T03:57:14.712Z,21.7
2016-05-08T03:58:13.996Z,21.73
2016-05-08T03:59:13.780Z,21.74
2016-05-08T04:00:13.626Z,21.64
2016-05-08T04:01:13.786Z,21.74
2016-05-08T04:02:13.789Z,21.71
2016-05-08T04:03:13.822Z,21.68
2016-05-08T04:04:13.637Z,21.73
2016-05-08T04:05:13.593Z,21.73
2016-05-08T04:06:13.783Z,21.68
2016-05-08T04:07:13.427Z,21.59
2016-05-08T04:08:13.773Z,21.68
2016-05-08T04:09:13.572Z,21.62
2016-05-08T04:10:13.825Z,21.67
2016-05-08T04:11:13.578Z,21.62
2016-05-08T04:12:13.769Z,21.64
2016-05-08T04:13:13.615Z,21.66
2016-05-08T04:14:13.977Z,21.56
2016-05-08T04:15:13.760Z,21.62
2016-05-08T04:16:13.763Z,21.59
2016-05-08T04:17:13.547Z,21.59
2016-05-08T04:18:13.410Z,21.58
2016-05-08T04:19:13.568Z,21.53
2016-05-08T04:20:13.962Z,21.52
2016-05-08T04:21:13.605Z,21.51
2016-05-08T04:22:13.968Z,21.55
2016-05-08T04:23:13.548Z,21.51
2016-05-08T04:24:13.550Z,21.52
2016-05-08T04:25:13.959Z,21.52
2016-05-08T04:26:13.962Z,21.45
2016-05-08T04:27:13.762Z,21.43
2016-05-08T04:28:13.562Z,21.41
2016-05-08T04:29:13.954Z,21.41
2016-05-08T04:30:13.394Z,21.33
2016-05-08T04:31:13.553Z,21.34
2016-05-08T04:32:13.557Z,21.4
2016-05-08T04:33:13.747Z,21.4
2016-05-08T04:34:13.733Z,21.34
2016-05-08T04:35:13.939Z,21.36
2016-05-08T04:36:13.379Z,21.4
2016-05-08T04:37:13.539Z,21.33
2016-05-08T04:38:13.541Z,21.34
2016-05-08T04:39:13.528Z,21.33
2016-05-08T04:40:13.546Z,21.34
2016-05-08T04:41:13.737Z,21.34
2016-05-08T04:42:13.755Z,21.36
2016-05-08T04:43:13.945Z,21.33
2016-05-08T04:44:13.948Z,21.3
2016-05-08T04:45:13.733Z,21.33
2016-05-08T04:46:13.578Z,21.28
2016-05-08T04:47:13.738Z,21.23
2016-05-08T04:48:13.740Z,21.25
2016-05-08T04:49:13.523Z,21.22
2016-05-08T04:50:13.526Z,21.3
2016-05-08T04:51:13.530Z,21.28
2016-05-08T04:52:13.735Z,21.28
2016-05-08T04:53:13.598Z,21.25
2016-05-08T04:54:13.709Z,21.28
2016-05-08T04:55:13.540Z,21.19
2016-05-08T04:56:13.526Z,21.23
2016-05-08T04:57:13.921Z,21.13
2016-05-08T04:58:13.579Z,21.11
2016-05-08T04:59:13.566Z,21.21
2016-05-08T05:00:13.709Z,21.15
2016-05-08T05:01:13.712Z,21.19
2016-05-08T05:02:13.918Z,21.18
2016-05-08T05:03:13.906Z,21.19
2016-05-08T05:04:13.502Z,21.09
2016-05-08T05:05:13.755Z,21.03
2016-05-08T05:06:13.710Z,21.06
2016-05-08T05:07:13.494Z,21.12
2016-05-08T05:08:13.700Z,21.06
2016-05-08T05:09:13.906Z,21.06
2016-05-08T05:10:13.705Z,21.12
2016-05-08T05:11:13.911Z,21.06
2016-05-08T05:12:13.695Z,21.03
2016-05-08T05:13:13.916Z,21.03
2016-05-08T05:14:13.341Z,21.06
2016-05-08T05:15:13.500Z,21.03
2016-05-08T05:16:13.487Z,21.01
2016-05-08T05:17:13.490Z,20.98
2016-05-08T05:18:13.696Z,21.03
2016-05-08T05:19:13.495Z,21.03
2016-05-08T05:20:13.482Z,21.01
2016-05-08T05:21:13.735Z,21.03
2016-05-08T05:22:13.894Z,20.97
2016-05-08T05:23:13.912Z,21.06
2016-05-08T05:24:13.321Z,21.08
2016-05-08T05:25:13.480Z,21.03
2016-05-08T05:26:13.874Z,20.97
2016-05-08T05:27:13.673Z,20.94
2016-05-08T05:28:13.692Z,20.93
2016-05-08T05:29:13.678Z,20.97
2016-05-08T05:30:13.665Z,20.94
2016-05-08T05:31:13.278Z,20.97
2016-05-08T05:32:13.265Z,20.96
2016-05-08T05:33:13.861Z,20.96
2016-05-08T05:34:13.661Z,20.93
2016-05-08T05:35:13.867Z,20.98
2016-05-08T05:36:13.651Z,20.93
2016-05-08T05:37:13.716Z,20.9
2016-05-08T05:38:13.468Z,20.9
2016-05-08T05:39:13.705Z,20.94
2016-05-08T05:40:13.661Z,20.94
2016-05-08T05:41:13.648Z,20.94
2016-05-08T05:42:13.667Z,20.96
2016-05-08T05:43:13.653Z,20.98
2016-05-08T05:44:13.655Z,20.94
2016-05-08T05:45:13.674Z,20.91
2016-05-08T05:46:13.647Z,20.96
2016-05-08T05:47:13.446Z,20.94
2016-05-08T05:48:13.292Z,20.88
2016-05-08T05:49:13.654Z,20.93
2016-05-08T05:50:13.657Z,20.88
2016-05-08T05:51:13.440Z,20.91
2016-05-08T05:52:13.647Z,20.9
2016-05-08T05:53:13.634Z,20.9
2016-05-08T05:54:13.230Z,20.94
2016-05-08T05:55:13.435Z,20.91
2016-05-08T05:56:13.626Z,20.91
2016-05-08T05:57:13.425Z,20.91
2016-05-08T05:58:13.490Z,20.82
2016-05-08T05:59:13.478Z,20.9
2016-05-08T06:00:13.824Z,20.83
2016-05-08T06:01:13.420Z,20.94
2016-05-08T06:02:13.283Z,20.91
2016-05-08T06:03:13.614Z,20.85
2016-05-08T06:04:13.257Z,20.82
2016-05-08T06:05:13.620Z,20.91
2016-05-08T06:06:13.465Z,20.93
2016-05-08T06:07:13.811Z,20.9
2016-05-08T06:08:13.611Z,20.9
2016-05-08T06:09:13.614Z,20.86
2016-05-08T06:10:13.600Z,20.93
2016-05-08T06:11:13.058Z,20.9
2016-05-08T06:12:13.622Z,20.86
2016-05-08T06:13:13.609Z,20.94
2016-05-08T06:14:13.612Z,20.88
2016-05-08T06:15:13.380Z,20.93
2016-05-08T06:16:13.586Z,20.88
2016-05-08T06:17:13.416Z,20.94
2016-05-08T06:18:13.794Z,20.88
2016-05-08T06:19:13.813Z,20.94
2016-05-08T06:20:13.582Z,20.93
2016-05-08T06:21:13.599Z,20.9
2016-05-08T06:22:13.383Z,20.94
2016-05-08T06:23:13.432Z,20.91
2016-05-08T06:24:13.388Z,20.9
2016-05-08T06:25:13.782Z,20.91
2016-05-08T06:26:13.268Z,20.98
2016-05-08T06:27:13.788Z,21.01
2016-05-08T06:28:13.603Z,20.97
2016-05-08T06:29:13.777Z,21.03
2016-05-08T06:30:13.373Z,20.97
2016-05-08T06:31:13.361Z,20.98
2016-05-08T06:32:13.207Z,21.04
2016-05-08T06:33:13.772Z,21.01
2016-05-08T06:34:13.775Z,21.04
2016-05-08T06:35:13.153Z,21.06
2016-05-08T06:36:13.421Z,21.01
2016-05-08T06:37:13.361Z,21.09
2016-05-08T06:38:13.567Z,21.06
2016-05-08T06:39:13.397Z,21.09
2016-05-08T06:40:13.353Z,21.04
2016-05-08T06:41:13.747Z,21.08
2016-05-08T06:42:13.750Z,21.06
2016-05-08T06:43:13.909Z,21.11
2016-05-08T06:44:13.552Z,21.18
2016-05-08T06:45:13.555Z,21.16
2016-05-08T06:46:13.761Z,21.21
2016-05-08T06:47:13.732Z,21.15
2016-05-08T06:48:13.547Z,21.23
2016-05-08T06:49:13.753Z,21.28
2016-05-08T06:50:13.521Z,21.27
2016-05-08T06:51:13.336Z,21.27
2016-05-08T06:52:13.730Z,21.23
2016-05-08T06:53:13.733Z,21.33
2016-05-08T06:54:13.735Z,21.25
2016-05-08T06:55:13.519Z,21.33
2016-05-08T06:56:13.334Z,21.33
2016-05-08T06:57:13.321Z,21.31
2016-05-08T06:58:13.776Z,21.33
2016-05-08T06:59:13.529Z,21.34
2016-05-08T07:00:13.517Z,21.36
2016-05-08T07:01:13.363Z,21.46
2016-05-08T07:02:13.523Z,21.51
2016-05-08T07:03:13.509Z,21.45
2016-05-08T07:04:13.715Z,21.48
2016-05-08T07:05:13.515Z,21.43
2016-05-08T07:06:13.501Z,21.52
2016-05-08T07:07:13.708Z,21.53
2016-05-08T07:08:13.725Z,21.48
2016-05-08T07:09:13.494Z,21.59
2016-05-08T07:10:13.294Z,21.67
2016-05-08T07:11:13.702Z,21.61
2016-05-08T07:12:13.705Z,21.66
2016-05-08T07:13:13.536Z,21.68
2016-05-08T07:14:13.711Z,21.71
2016-05-08T07:15:12.933Z,21.66
2016-05-08T07:16:13.278Z,21.61
2016-05-08T07:17:13.485Z,21.61
2016-05-08T07:18:13.502Z,21.74
2016-05-08T07:19:13.286Z,21.74
2016-05-08T07:20:13.477Z,21.7
2016-05-08T07:21:13.479Z,21.76
2016-05-08T07:22:13.499Z,21.78
2016-05-08T07:23:13.532Z,21.7
2016-05-08T07:24:13.472Z,21.86
2016-05-08T07:25:13.491Z,21.73
2016-05-08T07:26:13.477Z,21.68
2016-05-08T07:27:13.480Z,21.73
2016-05-08T07:28:13.483Z,21.76
2016-05-08T07:29:12.907Z,21.85
2016-05-08T07:30:13.269Z,21.77
2016-05-08T07:31:13.476Z,21.82
2016-05-08T07:32:13.103Z,21.82
2016-05-08T07:33:13.278Z,21.82
2016-05-08T07:34:13.468Z,21.89
2016-05-08T07:35:13.064Z,21.86
2016-05-08T07:36:13.473Z,21.86
2016-05-08T07:37:13.460Z,21.85
2016-05-08T07:38:13.260Z,21.85
2016-05-08T07:39:13.465Z,21.86
2016-05-08T07:40:13.452Z,21.96
2016-05-08T07:41:13.081Z,21.97
2016-05-08T07:42:13.489Z,21.86
2016-05-08T07:43:13.758Z,22.02
2016-05-08T07:44:13.447Z,22
2016-05-08T07:45:13.450Z,22
2016-05-08T07:46:13.250Z,21.94
2016-05-08T07:47:13.441Z,22.02
2016-05-08T07:48:13.443Z,22.02
2016-05-08T07:49:13.054Z,22.04
2016-05-08T07:50:13.244Z,22.07
2016-05-08T07:51:13.451Z,22.14
2016-05-08T07:52:13.485Z,22.08
2016-05-08T07:53:13.441Z,22.02
2016-05-08T07:54:13.474Z,22.12
2016-05-08T07:55:13.274Z,22.12
2016-05-08T07:56:13.480Z,22.12
2016-05-08T07:57:13.435Z,22.22
2016-05-08T07:58:13.626Z,22.12
2016-05-08T07:59:13.223Z,22.11
2016-05-08T08:00:13.225Z,22.16
2016-05-08T08:01:13.634Z,22.22
2016-05-08T08:02:13.434Z,22.18
2016-05-08T08:03:13.420Z,22.18
2016-05-08T08:04:13.267Z,22.24
2016-05-08T08:05:13.426Z,22.23
2016-05-08T08:06:13.210Z,22.26
2016-05-08T08:07:13.619Z,22.22
2016-05-08T08:08:13.012Z,22.24
2016-05-08T08:09:13.218Z,22.3
2016-05-08T08:10:13.048Z,22.26
2016-05-08T08:11:12.989Z,22.3
2016-05-08T08:12:13.414Z,22.27
2016-05-08T08:13:13.525Z,22.26
2016-05-08T08:14:13.606Z,22.26
2016-05-08T08:15:13.422Z,22.23
2016-05-08T08:16:13.409Z,22.29
2016-05-08T08:17:13.614Z,22.29
2016-05-08T08:18:12.992Z,22.24
2016-05-08T08:19:13.198Z,22.29
2016-05-08T08:20:13.200Z,22.31
2016-05-08T08:21:13.047Z,22.33
2016-05-08T08:22:13.597Z,22.23
2016-05-08T08:23:13.396Z,22.33
2016-05-08T08:24:13.399Z,22.44
2016-05-08T08:25:13.402Z,22.42
2016-05-08T08:26:13.404Z,22.36
2016-05-08T08:27:12.985Z,22.44
2016-05-08T08:28:13.535Z,22.46
2016-05-08T08:29:13.397Z,22.48
2016-05-08T08:30:13.399Z,22.34
2016-05-08T08:31:13.387Z,22.42
2016-05-08T08:32:13.437Z,22.46
2016-05-08T08:33:13.173Z,22.54
2016-05-08T08:34:13.582Z,22.44
2016-05-08T08:35:13.584Z,22.49
2016-05-08T08:36:13.181Z,22.42
2016-05-08T08:37:12.981Z,22.55
2016-05-08T08:38:13.374Z,22.48
2016-05-08T08:39:13.376Z,22.57
2016-05-08T08:40:13.379Z,22.54
2016-05-08T08:41:13.398Z,22.51
2016-05-08T08:42:13.370Z,22.6
2016-05-08T08:43:13.622Z,22.52
2016-05-08T08:44:13.577Z,22.55
2016-05-08T08:45:13.174Z,22.55
2016-05-08T08:46:13.364Z,22.59
2016-05-08T08:47:13.367Z,22.61
2016-05-08T08:48:13.572Z,22.59
2016-05-08T08:49:13.153Z,22.59
2016-05-08T08:50:13.406Z,22.6
2016-05-08T08:51:13.566Z,22.67
2016-05-08T08:52:13.365Z,22.7
2016-05-08T08:53:13.149Z,22.54
2016-05-08T08:54:13.354Z,22.69
2016-05-08T08:55:13.404Z,22.63
2016-05-08T08:56:13.360Z,22.63
2016-05-08T08:57:13.362Z,22.61
2016-05-08T08:58:13.022Z,22.76
2016-05-08T08:59:13.352Z,22.63
2016-05-08T09:00:13.152Z,22.59
2016-05-08T09:01:13.561Z,22.64
2016-05-08T09:02:13.001Z,22.64
2016-05-08T09:03:12.941Z,22.78
2016-05-08T09:04:13.553Z,22.78
2016-05-08T09:05:13.337Z,22.64
2016-05-08T09:06:13.356Z,22.69
2016-05-08T09:07:13.358Z,22.67
2016-05-08T09:08:13.549Z,22.6
2016-05-08T09:09:13.551Z,22.61
2016-05-08T09:10:13.553Z,22.54
2016-05-08T09:11:13.198Z,22.61
2016-05-08T09:12:13.153Z,22.55
2016-05-08T09:13:13.312Z,22.59
2016-05-08T09:14:13.345Z,22.61
2016-05-08T09:15:13.145Z,22.66
2016-05-08T09:16:12.976Z,22.63
2016-05-08T09:17:12.932Z,22.73
2016-05-08T09:18:13.341Z,22.6
2016-05-08T09:19:13.233Z,22.7
2016-05-08T09:20:13.144Z,22.69
2016-05-08T09:21:13.381Z,22.76
2016-05-08T09:22:13.336Z,22.82
2016-05-08T09:23:13.527Z,22.81
2016-05-08T09:24:13.122Z,22.73
2016-05-08T09:25:13.329Z,22.81
2016-05-08T09:26:13.128Z,22.89
2016-05-08T09:27:13.146Z,22.89
2016-05-08T09:28:13.571Z,22.88
2016-05-08T09:29:13.527Z,22.96
2016-05-08T09:30:13.124Z,22.96
2016-05-08T09:31:12.938Z,22.91
2016-05-08T09:32:13.113Z,22.96
2016-05-08T09:33:13.115Z,23.04
2016-05-08T09:34:13.541Z,23.1
2016-05-08T09:35:13.152Z,23.1
2016-05-08T09:36:13.311Z,23.09
2016-05-08T09:37:13.111Z,23.16
2016-05-08T09:38:20.317Z,23.18
2016-05-08T09:39:13.304Z,23.18
2016-05-08T09:40:13.509Z,23.19
2016-05-08T09:41:13.309Z,23.16
2016-05-08T09:42:13.500Z,23.22
2016-05-08T09:43:13.845Z,23.24
2016-05-08T09:44:13.145Z,23.28
2016-05-08T09:45:13.491Z,23.29
2016-05-08T09:46:13.510Z,23.32
2016-05-08T09:47:13.295Z,23.25
2016-05-08T09:48:13.297Z,23.32
2016-05-08T09:49:13.097Z,23.26
2016-05-08T09:50:13.302Z,23.29
2016-05-08T09:51:13.086Z,23.44
2016-05-08T09:52:13.277Z,23.42
2016-05-08T09:53:13.294Z,23.59
2016-05-08T09:54:12.719Z,23.53
2016-05-08T09:55:13.487Z,23.5
2016-05-08T09:56:13.131Z,23.53
2016-05-08T09:57:13.493Z,23.5
2016-05-08T09:58:13.089Z,23.53
2016-05-08T09:59:13.124Z,23.57
2016-05-08T10:00:13.079Z,23.64
2016-05-08T10:01:13.285Z,23.63
2016-05-08T10:02:13.131Z,23.74
2016-05-08T10:03:13.321Z,23.71
2016-05-08T10:04:13.121Z,23.78
2016-05-08T10:05:13.077Z,23.78
2016-05-08T10:06:13.064Z,23.75
2016-05-08T10:07:13.129Z,23.78
2016-05-08T10:08:13.070Z,23.85
2016-05-08T10:09:13.259Z,23.78
2016-05-08T10:10:13.075Z,23.79
2016-05-08T10:11:13.264Z,23.9
2016-05-08T10:12:13.470Z,23.85
2016-05-08T10:13:13.552Z,23.97
2016-05-08T10:14:13.475Z,23.99
2016-05-08T10:15:13.479Z,24.02
2016-05-08T10:16:13.481Z,23.97
2016-05-08T10:17:13.312Z,24.09
2016-05-08T10:18:13.472Z,23.99
2016-05-08T10:19:12.864Z,24.12
2016-05-08T10:20:13.070Z,24.08
2016-05-08T10:21:13.323Z,24.12
2016-05-08T10:22:12.716Z,24.12
2016-05-08T10:23:13.500Z,24.17
2016-05-08T10:24:13.061Z,24.21
2016-05-08T10:25:13.267Z,24.21
2016-05-08T10:26:12.894Z,24.18
2016-05-08T10:27:13.069Z,24.15
2016-05-08T10:28:13.274Z,24.22
2016-05-08T10:29:13.261Z,24.19
2016-05-08T10:30:13.061Z,24.19
2016-05-08T10:31:13.470Z,24.21
2016-05-08T10:32:13.269Z,24.33
2016-05-08T10:33:13.069Z,24.27
2016-05-08T10:34:12.853Z,24.32
2016-05-08T10:35:13.262Z,24.42
2016-05-08T10:36:13.077Z,24.4
2016-05-08T10:37:13.048Z,24.48
2016-05-08T10:38:13.051Z,24.45
2016-05-08T10:39:13.460Z,24.49
2016-05-08T10:40:13.056Z,24.51
2016-05-08T10:41:13.246Z,24.61
2016-05-08T10:42:13.249Z,24.55
2016-05-08T10:43:13.112Z,24.56
2016-05-08T10:44:13.286Z,24.59
2016-05-08T10:45:13.304Z,24.67
2016-05-08T10:46:13.260Z,24.67
2016-05-08T10:47:13.248Z,24.66
2016-05-08T10:48:13.109Z,24.61
2016-05-08T10:49:13.050Z,24.75
2016-05-08T10:50:13.256Z,24.67
2016-05-08T10:51:13.259Z,24.7
2016-05-08T10:52:13.261Z,24.75
2016-05-08T10:53:13.451Z,24.85
2016-05-08T10:54:13.313Z,24.85
2016-05-08T10:55:13.253Z,24.83
2016-05-08T10:56:13.256Z,24.87
2016-05-08T10:57:12.915Z,24.94
2016-05-08T10:58:13.761Z,24.94
2016-05-08T10:59:13.467Z,25.01
2016-05-08T11:00:13.267Z,25.02
2016-05-08T11:01:13.472Z,25.02
2016-05-08T11:02:12.866Z,25.09
2016-05-08T11:03:13.102Z,25.05
2016-05-08T11:04:13.246Z,25.19
2016-05-08T11:05:13.092Z,25.19
2016-05-08T11:06:12.688Z,25.15
2016-05-08T11:07:13.255Z,25.14
2016-05-08T11:08:13.288Z,25.19
2016-05-08T11:09:13.259Z,25.26
2016-05-08T11:10:13.059Z,25.27
2016-05-08T11:11:13.265Z,25.24
2016-05-08T11:12:13.065Z,25.26
2016-05-08T11:13:13.801Z,25.29
2016-05-08T11:14:13.085Z,25.42
2016-05-08T11:15:13.479Z,25.38
2016-05-08T11:16:13.123Z,25.34
2016-05-08T11:17:13.266Z,25.37
2016-05-08T11:18:12.909Z,25.39
2016-05-08T11:19:12.912Z,25.44
2016-05-08T11:20:13.320Z,25.45
2016-05-08T11:21:13.276Z,25.47
2016-05-08T11:22:13.481Z,25.51
2016-05-08T11:23:12.906Z,25.59
2016-05-08T11:24:13.284Z,25.57
2016-05-08T11:25:13.069Z,25.62
2016-05-08T11:26:13.477Z,25.6
2016-05-08T11:27:13.495Z,25.71
2016-05-08T11:28:13.483Z,25.7
2016-05-08T11:29:13.282Z,25.69
2016-05-08T11:30:13.128Z,25.7
2016-05-08T11:31:13.474Z,25.81
2016-05-08T11:32:13.275Z,25.81
2016-05-08T11:33:13.091Z,25.81
2016-05-08T11:34:13.483Z,25.82
2016-05-08T11:35:13.283Z,25.81
2016-05-08T11:36:13.082Z,25.82
2016-05-08T11:37:13.085Z,25.89
2016-05-08T11:38:13.072Z,25.97
2016-05-08T11:39:13.293Z,25.93
2016-05-08T11:40:13.296Z,25.88
2016-05-08T11:41:12.940Z,25.86
2016-05-08T11:42:13.145Z,25.91
2016-05-08T11:43:13.398Z,25.96
2016-05-08T11:44:13.291Z,26
2016-05-08T11:45:13.293Z,26.03
2016-05-08T11:46:12.890Z,25.97
2016-05-08T11:47:13.502Z,26.07
2016-05-08T11:48:12.944Z,26
2016-05-08T11:49:13.223Z,26
2016-05-08T11:50:12.877Z,26.04
2016-05-08T11:51:13.265Z,26.01
2016-05-08T11:52:13.106Z,26.15
2016-05-08T11:53:13.333Z,26.15
2016-05-08T11:54:13.539Z,26.09
2016-05-08T11:55:13.009Z,26.2
2016-05-08T11:56:13.793Z,26.15
2016-05-08T11:57:13.231Z,26.19
2016-05-08T11:58:13.821Z,26.16
2016-05-08T11:59:13.625Z,26.15
2016-05-08T12:00:13.618Z,26.26
2016-05-08T12:01:13.829Z,26.22
2016-05-08T12:02:13.431Z,26.31
2016-05-08T12:03:13.077Z,26.27
2016-05-08T12:04:13.644Z,26.2
2016-05-08T12:05:13.461Z,26.24
2016-05-08T12:06:13.668Z,26.3
2016-05-08T12:07:13.892Z,26.38
2016-05-08T12:08:13.661Z,26.34
2016-05-08T12:09:13.868Z,26.32
2016-05-08T12:10:13.263Z,26.35
2016-05-08T12:11:13.469Z,26.38
2016-05-08T12:12:13.676Z,26.34
2016-05-08T12:13:13.897Z,26.44
2016-05-08T12:14:13.680Z,26.44
2016-05-08T12:15:13.668Z,26.44
2016-05-08T12:16:13.873Z,26.42
2016-05-08T12:17:13.486Z,26.45
2016-05-08T12:18:13.675Z,26.44
2016-05-08T12:19:13.695Z,26.44
2016-05-08T12:20:13.885Z,26.49
2016-05-08T12:21:13.684Z,26.5
2016-05-08T12:22:13.734Z,26.54
2016-05-08T12:23:13.892Z,26.59
2016-05-08T12:24:13.739Z,26.54
2016-05-08T12:25:13.741Z,26.47
2016-05-08T12:26:13.135Z,26.61
2016-05-08T12:27:13.700Z,26.57
2016-05-08T12:28:13.516Z,26.61
2016-05-08T12:29:13.502Z,26.56
2016-05-08T12:30:13.505Z,26.5
2016-05-08T12:31:13.696Z,26.63
2016-05-08T12:32:13.510Z,26.61
2016-05-08T12:33:13.919Z,26.6
2016-05-08T12:34:13.921Z,26.67
2016-05-08T12:35:13.550Z,26.67
2016-05-08T12:36:13.522Z,26.69
2016-05-08T12:37:13.712Z,26.63
2016-05-08T12:38:13.527Z,26.64
2016-05-08T12:39:13.013Z,26.68
2016-05-08T12:40:13.735Z,26.71
2016-05-08T12:41:13.738Z,26.68
2016-05-08T12:42:13.725Z,26.74
2016-05-08T12:43:14.103Z,26.76
2016-05-08T12:44:13.387Z,26.84
2016-05-08T12:45:13.936Z,26.75
2016-05-08T12:46:13.954Z,26.76
2016-05-08T12:47:13.739Z,26.89
2016-05-08T12:48:13.381Z,26.78
2016-05-08T12:49:13.744Z,26.79
2016-05-08T12:50:13.542Z,26.81
2016-05-08T12:51:13.764Z,26.81
2016-05-08T12:52:13.971Z,26.79
2016-05-08T12:53:13.755Z,26.78
2016-05-08T12:54:13.601Z,26.89
2016-05-08T12:55:13.603Z,26.9